sensor_id;sensor_type;location;lat;lon;timestamp;P1;durP1;ratioP1;P2;durP2;ratioP2
9821;SDS011;4950;46.042;14.472;2023-04-25T00:00:00;9.00;;;5.00;;
9821;SDS011;4950;46.042;14.472;2023-04-25T00:02:27;6.30;;;4.40;;
9821;SDS011;4950;46.042;14.472;2023-04-25T00:04:53;7.05;;;4.35;;
9821;SDS011;4950;46.042;14.472;2023-04-25T00:07:23;8.38;;;5.18;;
9821;SDS011;4950;46.042;14.472;2023-04-25T00:09:51;8.32;;;5.63;;
9821;SDS011;4950;46.042;14.472;2023-04-25T00:12:19;8.82;;;6.05;;
9821;SDS011;4950;46.042;14.472;2023-04-25T00:14:47;6.32;;;4.63;;
9821;SDS011;4950;46.042;14.472;2023-04-25T00:17:14;9.38;;;5.05;;
9821;SDS011;4950;46.042;14.472;2023-04-25T00:19:41;11.38;;;5.07;;
9821;SDS011;4950;46.042;14.472;2023-04-25T00:22:09;9.82;;;5.75;;
9821;SDS011;4950;46.042;14.472;2023-04-25T00:24:37;8.35;;;5.32;;
9821;SDS011;4950;46.042;14.472;2023-04-25T00:27:03;9.20;;;5.68;;
9821;SDS011;4950;46.042;14.472;2023-04-25T00:29:31;7.47;;;5.15;;
9821;SDS011;4950;46.042;14.472;2023-04-25T00:31:59;11.07;;;5.80;;
9821;SDS011;4950;46.042;14.472;2023-04-25T00:34:26;9.73;;;5.40;;
9821;SDS011;4950;46.042;14.472;2023-04-25T00:36:53;7.80;;;5.40;;
9821;SDS011;4950;46.042;14.472;2023-04-25T00:39:20;9.38;;;6.20;;
9821;SDS011;4950;46.042;14.472;2023-04-25T00:41:46;10.63;;;5.88;;
9821;SDS011;4950;46.042;14.472;2023-04-25T00:44:18;7.07;;;4.40;;
9821;SDS011;4950;46.042;14.472;2023-04-25T00:46:46;8.95;;;5.13;;
9821;SDS011;4950;46.042;14.472;2023-04-25T00:49:13;8.77;;;4.80;;
9821;SDS011;4950;46.042;14.472;2023-04-25T00:51:41;8.43;;;5.45;;
9821;SDS011;4950;46.042;14.472;2023-04-25T00:54:09;13.20;;;5.35;;
9821;SDS011;4950;46.042;14.472;2023-04-25T00:56:36;12.20;;;6.32;;
9821;SDS011;4950;46.042;14.472;2023-04-25T00:59:03;9.30;;;5.75;;
9821;SDS011;4950;46.042;14.472;2023-04-25T01:01:30;12.18;;;8.13;;
9821;SDS011;4950;46.042;14.472;2023-04-25T01:03:59;11.20;;;6.80;;
9821;SDS011;4950;46.042;14.472;2023-04-25T01:06:27;7.68;;;4.70;;
9821;SDS011;4950;46.042;14.472;2023-04-25T01:08:54;10.13;;;5.88;;
9821;SDS011;4950;46.042;14.472;2023-04-25T01:11:20;8.48;;;3.90;;
9821;SDS011;4950;46.042;14.472;2023-04-25T01:13:47;5.93;;;3.85;;
9821;SDS011;4950;46.042;14.472;2023-04-25T01:16:14;4.72;;;2.80;;
9821;SDS011;4950;46.042;14.472;2023-04-25T01:18:41;6.03;;;3.00;;
9821;SDS011;4950;46.042;14.472;2023-04-25T01:21:11;9.55;;;5.13;;
9821;SDS011;4950;46.042;14.472;2023-04-25T01:23:40;9.82;;;5.18;;
9821;SDS011;4950;46.042;14.472;2023-04-25T01:26:07;9.43;;;5.63;;
9821;SDS011;4950;46.042;14.472;2023-04-25T01:28:35;8.82;;;4.95;;
9821;SDS011;4950;46.042;14.472;2023-04-25T01:31:02;7.18;;;4.05;;
9821;SDS011;4950;46.042;14.472;2023-04-25T01:33:30;7.22;;;3.13;;
9821;SDS011;4950;46.042;14.472;2023-04-25T01:35:57;5.07;;;2.97;;
9821;SDS011;4950;46.042;14.472;2023-04-25T01:38:25;5.80;;;3.63;;
9821;SDS011;4950;46.042;14.472;2023-04-25T01:40:52;5.78;;;3.35;;
9821;SDS011;4950;46.042;14.472;2023-04-25T01:43:21;5.45;;;2.85;;
9821;SDS011;4950;46.042;14.472;2023-04-25T01:45:48;3.38;;;2.55;;
9821;SDS011;4950;46.042;14.472;2023-04-25T01:48:16;5.55;;;3.38;;
9821;SDS011;4950;46.042;14.472;2023-04-25T01:50:43;5.07;;;3.10;;
9821;SDS011;4950;46.042;14.472;2023-04-25T01:53:10;7.75;;;4.40;;
9821;SDS011;4950;46.042;14.472;2023-04-25T01:55:40;7.82;;;4.35;;
9821;SDS011;4950;46.042;14.472;2023-04-25T01:58:07;8.40;;;5.07;;
9821;SDS011;4950;46.042;14.472;2023-04-25T02:00:37;9.57;;;5.20;;
9821;SDS011;4950;46.042;14.472;2023-04-25T02:03:05;7.50;;;4.65;;
9821;SDS011;4950;46.042;14.472;2023-04-25T02:05:36;8.23;;;4.82;;
9821;SDS011;4950;46.042;14.472;2023-04-25T02:08:04;7.57;;;4.28;;
9821;SDS011;4950;46.042;14.472;2023-04-25T02:10:31;7.28;;;4.28;;
9821;SDS011;4950;46.042;14.472;2023-04-25T02:12:59;7.85;;;4.40;;
9821;SDS011;4950;46.042;14.472;2023-04-25T02:15:26;7.30;;;3.97;;
9821;SDS011;4950;46.042;14.472;2023-04-25T02:17:53;6.13;;;3.47;;
9821;SDS011;4950;46.042;14.472;2023-04-25T02:20:20;5.65;;;2.80;;
9821;SDS011;4950;46.042;14.472;2023-04-25T02:22:48;6.75;;;2.70;;
9821;SDS011;4950;46.042;14.472;2023-04-25T02:25:16;5.18;;;2.95;;
9821;SDS011;4950;46.042;14.472;2023-04-25T02:27:44;5.88;;;3.40;;
9821;SDS011;4950;46.042;14.472;2023-04-25T02:30:13;4.47;;;2.85;;
9821;SDS011;4950;46.042;14.472;2023-04-25T02:32:40;8.20;;;3.15;;
9821;SDS011;4950;46.042;14.472;2023-04-25T02:35:07;6.55;;;3.60;;
9821;SDS011;4950;46.042;14.472;2023-04-25T02:37:35;4.68;;;3.00;;
9821;SDS011;4950;46.042;14.472;2023-04-25T02:40:03;5.43;;;3.15;;
9821;SDS011;4950;46.042;14.472;2023-04-25T02:42:30;7.40;;;3.50;;
9821;SDS011;4950;46.042;14.472;2023-04-25T02:44:57;7.72;;;3.58;;
9821;SDS011;4950;46.042;14.472;2023-04-25T02:47:25;8.85;;;3.97;;
9821;SDS011;4950;46.042;14.472;2023-04-25T02:49:52;6.80;;;4.00;;
9821;SDS011;4950;46.042;14.472;2023-04-25T02:52:18;6.97;;;4.28;;
9821;SDS011;4950;46.042;14.472;2023-04-25T02:54:46;7.60;;;4.60;;
9821;SDS011;4950;46.042;14.472;2023-04-25T02:57:12;8.30;;;4.15;;
9821;SDS011;4950;46.042;14.472;2023-04-25T02:59:39;7.22;;;4.63;;
9821;SDS011;4950;46.042;14.472;2023-04-25T03:02:06;8.88;;;4.78;;
9821;SDS011;4950;46.042;14.472;2023-04-25T03:04:34;7.88;;;5.00;;
9821;SDS011;4950;46.042;14.472;2023-04-25T03:07:01;7.03;;;4.55;;
9821;SDS011;4950;46.042;14.472;2023-04-25T03:09:28;8.38;;;4.97;;
9821;SDS011;4950;46.042;14.472;2023-04-25T03:11:54;8.57;;;5.55;;
9821;SDS011;4950;46.042;14.472;2023-04-25T03:14:21;9.70;;;5.68;;
9821;SDS011;4950;46.042;14.472;2023-04-25T03:16:48;7.07;;;4.75;;
9821;SDS011;4950;46.042;14.472;2023-04-25T03:19:14;7.60;;;4.63;;
9821;SDS011;4950;46.042;14.472;2023-04-25T03:21:43;10.63;;;5.57;;
9821;SDS011;4950;46.042;14.472;2023-04-25T03:24:10;9.18;;;5.05;;
9821;SDS011;4950;46.042;14.472;2023-04-25T03:26:37;9.98;;;5.90;;
9821;SDS011;4950;46.042;14.472;2023-04-25T03:29:04;9.55;;;6.18;;
9821;SDS011;4950;46.042;14.472;2023-04-25T03:31:31;8.70;;;5.47;;
9821;SDS011;4950;46.042;14.472;2023-04-25T03:33:57;7.50;;;4.63;;
9821;SDS011;4950;46.042;14.472;2023-04-25T03:36:24;8.13;;;5.15;;
9821;SDS011;4950;46.042;14.472;2023-04-25T03:38:52;8.82;;;5.35;;
9821;SDS011;4950;46.042;14.472;2023-04-25T03:41:19;9.65;;;5.93;;
9821;SDS011;4950;46.042;14.472;2023-04-25T03:43:45;7.30;;;3.85;;
9821;SDS011;4950;46.042;14.472;2023-04-25T03:46:12;5.50;;;3.20;;
9821;SDS011;4950;46.042;14.472;2023-04-25T03:48:39;5.82;;;3.28;;
9821;SDS011;4950;46.042;14.472;2023-04-25T03:51:06;7.28;;;3.38;;
9821;SDS011;4950;46.042;14.472;2023-04-25T03:53:32;4.97;;;2.80;;
9821;SDS011;4950;46.042;14.472;2023-04-25T03:56:00;5.68;;;3.53;;
9821;SDS011;4950;46.042;14.472;2023-04-25T03:58:27;5.50;;;3.15;;
9821;SDS011;4950;46.042;14.472;2023-04-25T04:00:54;4.88;;;3.05;;
9821;SDS011;4950;46.042;14.472;2023-04-25T04:03:20;5.80;;;2.70;;
9821;SDS011;4950;46.042;14.472;2023-04-25T04:05:47;4.57;;;2.90;;
9821;SDS011;4950;46.042;14.472;2023-04-25T04:08:15;5.68;;;2.78;;
9821;SDS011;4950;46.042;14.472;2023-04-25T04:10:42;5.78;;;3.65;;
9821;SDS011;4950;46.042;14.472;2023-04-25T04:13:10;6.65;;;3.38;;
9821;SDS011;4950;46.042;14.472;2023-04-25T04:15:36;8.55;;;4.65;;
9821;SDS011;4950;46.042;14.472;2023-04-25T04:18:03;10.60;;;5.95;;
9821;SDS011;4950;46.042;14.472;2023-04-25T04:20:31;10.18;;;5.55;;
9821;SDS011;4950;46.042;14.472;2023-04-25T04:22:58;8.85;;;5.15;;
9821;SDS011;4950;46.042;14.472;2023-04-25T04:25:24;8.32;;;5.30;;
9821;SDS011;4950;46.042;14.472;2023-04-25T04:27:51;9.15;;;5.00;;
9821;SDS011;4950;46.042;14.472;2023-04-25T04:30:21;8.70;;;5.25;;
9821;SDS011;4950;46.042;14.472;2023-04-25T04:32:49;8.57;;;5.57;;
9821;SDS011;4950;46.042;14.472;2023-04-25T04:35:16;12.60;;;5.63;;
9821;SDS011;4950;46.042;14.472;2023-04-25T04:37:43;11.00;;;5.57;;
9821;SDS011;4950;46.042;14.472;2023-04-25T04:40:10;9.85;;;5.30;;
9821;SDS011;4950;46.042;14.472;2023-04-25T04:42:40;10.07;;;5.72;;
9821;SDS011;4950;46.042;14.472;2023-04-25T04:45:07;10.32;;;5.63;;
9821;SDS011;4950;46.042;14.472;2023-04-25T04:47:36;12.63;;;5.95;;
9821;SDS011;4950;46.042;14.472;2023-04-25T04:50:04;10.95;;;5.93;;
9821;SDS011;4950;46.042;14.472;2023-04-25T04:52:33;13.48;;;6.57;;
9821;SDS011;4950;46.042;14.472;2023-04-25T04:55:00;10.70;;;6.22;;
9821;SDS011;4950;46.042;14.472;2023-04-25T04:57:27;17.00;;;9.90;;
9821;SDS011;4950;46.042;14.472;2023-04-25T04:59:54;18.55;;;11.65;;
9821;SDS011;4950;46.042;14.472;2023-04-25T05:02:21;19.08;;;12.07;;
9821;SDS011;4950;46.042;14.472;2023-04-25T05:04:49;20.33;;;13.32;;
9821;SDS011;4950;46.042;14.472;2023-04-25T05:07:16;21.33;;;13.57;;
9821;SDS011;4950;46.042;14.472;2023-04-25T05:09:43;20.10;;;12.88;;
9821;SDS011;4950;46.042;14.472;2023-04-25T05:12:10;27.63;;;13.85;;
9821;SDS011;4950;46.042;14.472;2023-04-25T05:14:37;24.65;;;15.27;;
9821;SDS011;4950;46.042;14.472;2023-04-25T05:17:03;25.00;;;15.20;;
9821;SDS011;4950;46.042;14.472;2023-04-25T05:22:01;21.73;;;12.25;;
9821;SDS011;4950;46.042;14.472;2023-04-25T05:24:28;18.42;;;11.68;;
9821;SDS011;4950;46.042;14.472;2023-04-25T05:26:55;19.25;;;11.50;;
9821;SDS011;4950;46.042;14.472;2023-04-25T05:29:22;18.13;;;11.07;;
9821;SDS011;4950;46.042;14.472;2023-04-25T05:31:49;16.90;;;10.30;;
9821;SDS011;4950;46.042;14.472;2023-04-25T05:34:15;18.80;;;10.48;;
9821;SDS011;4950;46.042;14.472;2023-04-25T05:36:42;17.13;;;9.93;;
9821;SDS011;4950;46.042;14.472;2023-04-25T05:39:10;20.55;;;11.15;;
9821;SDS011;4950;46.042;14.472;2023-04-25T05:41:38;16.90;;;10.85;;
9821;SDS011;4950;46.042;14.472;2023-04-25T05:44:05;18.38;;;10.85;;
9821;SDS011;4950;46.042;14.472;2023-04-25T05:46:32;19.90;;;11.07;;
9821;SDS011;4950;46.042;14.472;2023-04-25T05:48:59;16.88;;;10.10;;
9821;SDS011;4950;46.042;14.472;2023-04-25T05:51:26;20.27;;;11.18;;
9821;SDS011;4950;46.042;14.472;2023-04-25T05:53:53;18.88;;;11.25;;
9821;SDS011;4950;46.042;14.472;2023-04-25T05:56:21;20.80;;;12.07;;
9821;SDS011;4950;46.042;14.472;2023-04-25T05:58:48;20.55;;;12.98;;
9821;SDS011;4950;46.042;14.472;2023-04-25T06:01:14;21.30;;;12.95;;
9821;SDS011;4950;46.042;14.472;2023-04-25T06:03:41;17.15;;;11.35;;
9821;SDS011;4950;46.042;14.472;2023-04-25T06:06:08;19.13;;;12.25;;
9821;SDS011;4950;46.042;14.472;2023-04-25T06:08:35;20.00;;;12.18;;
9821;SDS011;4950;46.042;14.472;2023-04-25T06:11:02;21.98;;;13.50;;
9821;SDS011;4950;46.042;14.472;2023-04-25T06:13:31;23.58;;;13.25;;
9821;SDS011;4950;46.042;14.472;2023-04-25T06:15:58;21.60;;;13.40;;
9821;SDS011;4950;46.042;14.472;2023-04-25T06:18:24;20.65;;;12.07;;
9821;SDS011;4950;46.042;14.472;2023-04-25T06:20:51;18.88;;;12.05;;
9821;SDS011;4950;46.042;14.472;2023-04-25T06:23:18;23.08;;;12.70;;
9821;SDS011;4950;46.042;14.472;2023-04-25T06:25:44;23.48;;;12.77;;
9821;SDS011;4950;46.042;14.472;2023-04-25T06:28:11;19.35;;;12.45;;
9821;SDS011;4950;46.042;14.472;2023-04-25T06:30:39;21.13;;;12.00;;
9821;SDS011;4950;46.042;14.472;2023-04-25T06:33:06;18.70;;;11.70;;
9821;SDS011;4950;46.042;14.472;2023-04-25T06:35:33;19.33;;;11.15;;
9821;SDS011;4950;46.042;14.472;2023-04-25T06:38:00;18.55;;;11.38;;
9821;SDS011;4950;46.042;14.472;2023-04-25T06:40:27;19.35;;;11.07;;
9821;SDS011;4950;46.042;14.472;2023-04-25T06:42:53;19.13;;;11.60;;
9821;SDS011;4950;46.042;14.472;2023-04-25T06:45:20;18.42;;;11.63;;
9821;SDS011;4950;46.042;14.472;2023-04-25T06:47:48;19.42;;;11.43;;
9821;SDS011;4950;46.042;14.472;2023-04-25T06:50:15;15.35;;;10.25;;
9821;SDS011;4950;46.042;14.472;2023-04-25T06:52:41;19.30;;;10.65;;
9821;SDS011;4950;46.042;14.472;2023-04-25T06:55:09;15.98;;;10.75;;
9821;SDS011;4950;46.042;14.472;2023-04-25T06:57:35;16.88;;;10.43;;
9821;SDS011;4950;46.042;14.472;2023-04-25T07:00:02;16.92;;;9.20;;
9821;SDS011;4950;46.042;14.472;2023-04-25T07:02:34;15.57;;;10.23;;
9821;SDS011;4950;46.042;14.472;2023-04-25T07:05:02;18.08;;;9.68;;
9821;SDS011;4950;46.042;14.472;2023-04-25T07:07:29;14.23;;;9.43;;
9821;SDS011;4950;46.042;14.472;2023-04-25T07:09:55;14.57;;;9.18;;
9821;SDS011;4950;46.042;14.472;2023-04-25T07:12:22;13.90;;;8.35;;
9821;SDS011;4950;46.042;14.472;2023-04-25T07:14:49;14.68;;;9.75;;
9821;SDS011;4950;46.042;14.472;2023-04-25T07:17:16;14.43;;;9.27;;
9821;SDS011;4950;46.042;14.472;2023-04-25T07:19:42;15.60;;;9.38;;
9821;SDS011;4950;46.042;14.472;2023-04-25T07:22:11;16.13;;;10.05;;
9821;SDS011;4950;46.042;14.472;2023-04-25T07:24:37;14.20;;;8.75;;
9821;SDS011;4950;46.042;14.472;2023-04-25T07:27:05;18.08;;;10.02;;
9821;SDS011;4950;46.042;14.472;2023-04-25T07:29:32;14.73;;;9.80;;
9821;SDS011;4950;46.042;14.472;2023-04-25T07:32:02;16.65;;;9.50;;
9821;SDS011;4950;46.042;14.472;2023-04-25T07:34:32;14.50;;;9.15;;
9821;SDS011;4950;46.042;14.472;2023-04-25T07:39:30;15.02;;;9.25;;
9821;SDS011;4950;46.042;14.472;2023-04-25T07:41:57;14.98;;;9.30;;
9821;SDS011;4950;46.042;14.472;2023-04-25T07:44:25;20.70;;;11.25;;
9821;SDS011;4950;46.042;14.472;2023-04-25T07:46:52;16.92;;;10.40;;
9821;SDS011;4950;46.042;14.472;2023-04-25T07:49:18;15.75;;;9.73;;
9821;SDS011;4950;46.042;14.472;2023-04-25T07:51:45;16.55;;;10.65;;
9821;SDS011;4950;46.042;14.472;2023-04-25T07:54:13;18.25;;;10.13;;
9821;SDS011;4950;46.042;14.472;2023-04-25T07:56:41;14.88;;;10.35;;
9821;SDS011;4950;46.042;14.472;2023-04-25T07:59:08;15.20;;;10.10;;
9821;SDS011;4950;46.042;14.472;2023-04-25T08:01:35;16.77;;;10.63;;
9821;SDS011;4950;46.042;14.472;2023-04-25T08:04:02;19.10;;;10.02;;
9821;SDS011;4950;46.042;14.472;2023-04-25T08:06:29;14.85;;;10.27;;
9821;SDS011;4950;46.042;14.472;2023-04-25T08:08:56;14.70;;;10.07;;
9821;SDS011;4950;46.042;14.472;2023-04-25T08:11:23;19.00;;;11.15;;
9821;SDS011;4950;46.042;14.472;2023-04-25T08:13:51;15.38;;;9.95;;
9821;SDS011;4950;46.042;14.472;2023-04-25T08:16:18;15.13;;;9.70;;
9821;SDS011;4950;46.042;14.472;2023-04-25T08:18:44;14.57;;;9.70;;
9821;SDS011;4950;46.042;14.472;2023-04-25T08:21:11;16.52;;;11.25;;
9821;SDS011;4950;46.042;14.472;2023-04-25T08:23:38;17.48;;;11.80;;
9821;SDS011;4950;46.042;14.472;2023-04-25T08:26:05;17.63;;;11.02;;
9821;SDS011;4950;46.042;14.472;2023-04-25T08:28:32;17.38;;;11.07;;
9821;SDS011;4950;46.042;14.472;2023-04-25T08:31:00;18.48;;;10.80;;
9821;SDS011;4950;46.042;14.472;2023-04-25T08:33:26;15.00;;;9.50;;
9821;SDS011;4950;46.042;14.472;2023-04-25T08:35:53;11.90;;;8.18;;
9821;SDS011;4950;46.042;14.472;2023-04-25T08:38:20;13.82;;;9.82;;
9821;SDS011;4950;46.042;14.472;2023-04-25T08:40:48;13.20;;;8.82;;
9821;SDS011;4950;46.042;14.472;2023-04-25T08:43:17;11.77;;;7.40;;
9821;SDS011;4950;46.042;14.472;2023-04-25T08:45:45;10.63;;;6.70;;
9821;SDS011;4950;46.042;14.472;2023-04-25T08:48:14;9.23;;;5.80;;
9821;SDS011;4950;46.042;14.472;2023-04-25T08:53:12;12.32;;;6.70;;
9821;SDS011;4950;46.042;14.472;2023-04-25T08:55:43;14.55;;;7.25;;
9821;SDS011;4950;46.042;14.472;2023-04-25T08:58:11;10.50;;;7.23;;
9821;SDS011;4950;46.042;14.472;2023-04-25T09:00:39;10.95;;;6.60;;
9821;SDS011;4950;46.042;14.472;2023-04-25T09:03:06;10.48;;;6.95;;
9821;SDS011;4950;46.042;14.472;2023-04-25T09:05:34;13.68;;;5.90;;
9821;SDS011;4950;46.042;14.472;2023-04-25T09:08:01;11.68;;;5.95;;
9821;SDS011;4950;46.042;14.472;2023-04-25T09:10:28;10.18;;;6.22;;
9821;SDS011;4950;46.042;14.472;2023-04-25T09:13:04;9.82;;;5.50;;
9821;SDS011;4950;46.042;14.472;2023-04-25T09:15:32;9.35;;;6.03;;
9821;SDS011;4950;46.042;14.472;2023-04-25T09:17:59;8.20;;;5.15;;
9821;SDS011;4950;46.042;14.472;2023-04-25T09:20:26;8.93;;;5.53;;
9821;SDS011;4950;46.042;14.472;2023-04-25T09:23:03;10.35;;;5.30;;
9821;SDS011;4950;46.042;14.472;2023-04-25T09:28:04;8.82;;;4.90;;
9821;SDS011;4950;46.042;14.472;2023-04-25T09:30:32;7.47;;;5.00;;
9821;SDS011;4950;46.042;14.472;2023-04-25T09:33:03;8.67;;;5.37;;
9821;SDS011;4950;46.042;14.472;2023-04-25T09:35:35;11.13;;;5.53;;
9821;SDS011;4950;46.042;14.472;2023-04-25T09:38:08;11.43;;;5.32;;
9821;SDS011;4950;46.042;14.472;2023-04-25T09:40:38;10.00;;;5.10;;
9821;SDS011;4950;46.042;14.472;2023-04-25T09:43:08;7.25;;;4.57;;
9821;SDS011;4950;46.042;14.472;2023-04-25T09:45:40;9.00;;;4.70;;
9821;SDS011;4950;46.042;14.472;2023-04-25T09:48:10;8.00;;;4.93;;
9821;SDS011;4950;46.042;14.472;2023-04-25T09:50:37;8.07;;;5.40;;
9821;SDS011;4950;46.042;14.472;2023-04-25T09:53:04;8.55;;;4.53;;
9821;SDS011;4950;46.042;14.472;2023-04-25T09:55:33;8.00;;;5.13;;
9821;SDS011;4950;46.042;14.472;2023-04-25T09:58:04;6.88;;;3.97;;
9821;SDS011;4950;46.042;14.472;2023-04-25T10:00:32;7.88;;;4.57;;
9821;SDS011;4950;46.042;14.472;2023-04-25T10:03:00;8.30;;;4.53;;
9821;SDS011;4950;46.042;14.472;2023-04-25T10:05:30;6.60;;;3.92;;
9821;SDS011;4950;46.042;14.472;2023-04-25T10:07:58;8.48;;;4.35;;
9821;SDS011;4950;46.042;14.472;2023-04-25T10:10:28;8.13;;;4.25;;
9821;SDS011;4950;46.042;14.472;2023-04-25T10:13:02;8.13;;;4.40;;
9821;SDS011;4950;46.042;14.472;2023-04-25T10:15:32;6.80;;;4.25;;
9821;SDS011;4950;46.042;14.472;2023-04-25T10:18:01;8.88;;;3.75;;
9821;SDS011;4950;46.042;14.472;2023-04-25T10:20:28;9.00;;;3.78;;
9821;SDS011;4950;46.042;14.472;2023-04-25T10:22:57;6.07;;;3.47;;
9821;SDS011;4950;46.042;14.472;2023-04-25T10:25:30;7.07;;;3.90;;
9821;SDS011;4950;46.042;14.472;2023-04-25T10:27:59;9.07;;;4.18;;
9821;SDS011;4950;46.042;14.472;2023-04-25T10:30:27;7.60;;;3.53;;
9821;SDS011;4950;46.042;14.472;2023-04-25T10:32:54;8.10;;;3.72;;
9821;SDS011;4950;46.042;14.472;2023-04-25T10:35:24;7.22;;;3.60;;
9821;SDS011;4950;46.042;14.472;2023-04-25T10:37:56;6.15;;;3.70;;
9821;SDS011;4950;46.042;14.472;2023-04-25T10:40:23;5.60;;;3.60;;
9821;SDS011;4950;46.042;14.472;2023-04-25T10:42:51;5.35;;;3.33;;
9821;SDS011;4950;46.042;14.472;2023-04-25T10:45:18;5.65;;;3.10;;
9821;SDS011;4950;46.042;14.472;2023-04-25T10:47:47;17.65;;;3.65;;
9821;SDS011;4950;46.042;14.472;2023-04-25T10:50:14;6.30;;;3.80;;
9821;SDS011;4950;46.042;14.472;2023-04-25T10:52:42;8.90;;;4.47;;
9821;SDS011;4950;46.042;14.472;2023-04-25T10:55:09;5.88;;;3.80;;
9821;SDS011;4950;46.042;14.472;2023-04-25T10:57:36;6.03;;;3.92;;
9821;SDS011;4950;46.042;14.472;2023-04-25T11:00:06;11.98;;;4.07;;
9821;SDS011;4950;46.042;14.472;2023-04-25T11:02:40;4.70;;;3.00;;
9821;SDS011;4950;46.042;14.472;2023-04-25T11:05:11;6.35;;;2.92;;
9821;SDS011;4950;46.042;14.472;2023-04-25T11:07:48;5.88;;;3.38;;
9821;SDS011;4950;46.042;14.472;2023-04-25T11:10:17;5.25;;;3.67;;
9821;SDS011;4950;46.042;14.472;2023-04-25T11:12:45;5.15;;;3.08;;
9821;SDS011;4950;46.042;14.472;2023-04-25T11:15:12;6.38;;;2.85;;
9821;SDS011;4950;46.042;14.472;2023-04-25T11:17:39;5.25;;;3.03;;
9821;SDS011;4950;46.042;14.472;2023-04-25T11:20:06;7.82;;;3.28;;
9821;SDS011;4950;46.042;14.472;2023-04-25T11:22:38;8.95;;;2.97;;
9821;SDS011;4950;46.042;14.472;2023-04-25T11:25:07;4.68;;;2.72;;
9821;SDS011;4950;46.042;14.472;2023-04-25T11:27:37;4.65;;;2.85;;
9821;SDS011;4950;46.042;14.472;2023-04-25T11:30:12;3.78;;;2.75;;
9821;SDS011;4950;46.042;14.472;2023-04-25T11:32:40;5.47;;;2.78;;
9821;SDS011;4950;46.042;14.472;2023-04-25T11:35:08;6.95;;;2.53;;
9821;SDS011;4950;46.042;14.472;2023-04-25T11:37:35;8.07;;;2.70;;
9821;SDS011;4950;46.042;14.472;2023-04-25T11:40:03;8.80;;;2.85;;
9821;SDS011;4950;46.042;14.472;2023-04-25T11:42:34;7.65;;;3.55;;
9821;SDS011;4950;46.042;14.472;2023-04-25T11:45:00;7.38;;;3.20;;
9821;SDS011;4950;46.042;14.472;2023-04-25T11:47:28;4.90;;;2.60;;
9821;SDS011;4950;46.042;14.472;2023-04-25T11:49:57;4.82;;;2.80;;
9821;SDS011;4950;46.042;14.472;2023-04-25T11:52:24;5.00;;;2.42;;
9821;SDS011;4950;46.042;14.472;2023-04-25T11:54:51;2.95;;;2.38;;
9821;SDS011;4950;46.042;14.472;2023-04-25T11:57:20;5.25;;;2.45;;
9821;SDS011;4950;46.042;14.472;2023-04-25T11:59:47;5.03;;;2.58;;
9821;SDS011;4950;46.042;14.472;2023-04-25T12:02:23;4.38;;;2.42;;
9821;SDS011;4950;46.042;14.472;2023-04-25T12:04:51;7.63;;;2.55;;
9821;SDS011;4950;46.042;14.472;2023-04-25T12:07:18;5.53;;;2.65;;
9821;SDS011;4950;46.042;14.472;2023-04-25T12:09:50;7.78;;;2.97;;
9821;SDS011;4950;46.042;14.472;2023-04-25T12:12:19;6.88;;;2.80;;
9821;SDS011;4950;46.042;14.472;2023-04-25T12:14:46;3.88;;;2.50;;
9821;SDS011;4950;46.042;14.472;2023-04-25T12:17:14;4.50;;;2.55;;
9821;SDS011;4950;46.042;14.472;2023-04-25T12:19:43;3.97;;;2.65;;
9821;SDS011;4950;46.042;14.472;2023-04-25T12:22:22;6.43;;;3.10;;
9821;SDS011;4950;46.042;14.472;2023-04-25T12:24:50;3.97;;;2.63;;
9821;SDS011;4950;46.042;14.472;2023-04-25T12:27:19;4.28;;;2.47;;
9821;SDS011;4950;46.042;14.472;2023-04-25T12:29:53;5.13;;;2.67;;
9821;SDS011;4950;46.042;14.472;2023-04-25T12:32:21;5.13;;;3.28;;
9821;SDS011;4950;46.042;14.472;2023-04-25T12:34:48;4.38;;;2.20;;
9821;SDS011;4950;46.042;14.472;2023-04-25T12:37:15;6.50;;;2.60;;
9821;SDS011;4950;46.042;14.472;2023-04-25T12:39:42;4.70;;;2.30;;
9821;SDS011;4950;46.042;14.472;2023-04-25T12:42:08;6.10;;;2.45;;
9821;SDS011;4950;46.042;14.472;2023-04-25T12:44:38;4.88;;;2.50;;
9821;SDS011;4950;46.042;14.472;2023-04-25T12:47:05;3.87;;;2.50;;
9821;SDS011;4950;46.042;14.472;2023-04-25T12:49:31;5.30;;;2.70;;
9821;SDS011;4950;46.042;14.472;2023-04-25T12:51:58;4.85;;;2.83;;
9821;SDS011;4950;46.042;14.472;2023-04-25T12:54:25;7.10;;;2.58;;
9821;SDS011;4950;46.042;14.472;2023-04-25T12:56:52;4.55;;;2.50;;
9821;SDS011;4950;46.042;14.472;2023-04-25T12:59:19;4.13;;;2.40;;
9821;SDS011;4950;46.042;14.472;2023-04-25T13:01:48;4.90;;;2.25;;
9821;SDS011;4950;46.042;14.472;2023-04-25T13:04:14;3.08;;;2.22;;
9821;SDS011;4950;46.042;14.472;2023-04-25T13:06:42;3.42;;;2.08;;
9821;SDS011;4950;46.042;14.472;2023-04-25T13:09:09;4.57;;;2.40;;
9821;SDS011;4950;46.042;14.472;2023-04-25T13:11:37;7.40;;;2.50;;
9821;SDS011;4950;46.042;14.472;2023-04-25T13:14:04;5.30;;;1.88;;
9821;SDS011;4950;46.042;14.472;2023-04-25T13:16:31;3.72;;;2.25;;
9821;SDS011;4950;46.042;14.472;2023-04-25T13:18:59;5.05;;;2.30;;
9821;SDS011;4950;46.042;14.472;2023-04-25T13:21:26;6.78;;;3.05;;
9821;SDS011;4950;46.042;14.472;2023-04-25T13:23:54;4.50;;;2.38;;
9821;SDS011;4950;46.042;14.472;2023-04-25T13:26:21;5.63;;;3.00;;
9821;SDS011;4950;46.042;14.472;2023-04-25T13:28:47;6.93;;;2.92;;
9821;SDS011;4950;46.042;14.472;2023-04-25T13:31:14;6.90;;;2.80;;
9821;SDS011;4950;46.042;14.472;2023-04-25T13:33:41;3.67;;;2.63;;
9821;SDS011;4950;46.042;14.472;2023-04-25T13:36:09;5.65;;;2.28;;
9821;SDS011;4950;46.042;14.472;2023-04-25T13:38:36;4.10;;;2.60;;
9821;SDS011;4950;46.042;14.472;2023-04-25T13:41:04;3.55;;;2.20;;
9821;SDS011;4950;46.042;14.472;2023-04-25T13:43:32;3.53;;;2.20;;
9821;SDS011;4950;46.042;14.472;2023-04-25T13:45:59;5.15;;;2.47;;
9821;SDS011;4950;46.042;14.472;2023-04-25T13:48:26;4.63;;;2.13;;
9821;SDS011;4950;46.042;14.472;2023-04-25T13:50:52;3.33;;;2.17;;
9821;SDS011;4950;46.042;14.472;2023-04-25T13:53:20;5.13;;;2.40;;
9821;SDS011;4950;46.042;14.472;2023-04-25T13:55:47;4.35;;;2.03;;
9821;SDS011;4950;46.042;14.472;2023-04-25T13:58:14;5.45;;;1.95;;
9821;SDS011;4950;46.042;14.472;2023-04-25T14:00:40;4.13;;;2.50;;
9821;SDS011;4950;46.042;14.472;2023-04-25T14:03:08;3.35;;;2.00;;
9821;SDS011;4950;46.042;14.472;2023-04-25T14:05:35;3.45;;;2.38;;
9821;SDS011;4950;46.042;14.472;2023-04-25T14:08:04;2.90;;;2.00;;
9821;SDS011;4950;46.042;14.472;2023-04-25T14:10:33;4.53;;;2.78;;
9821;SDS011;4950;46.042;14.472;2023-04-25T14:13:00;5.13;;;2.30;;
9821;SDS011;4950;46.042;14.472;2023-04-25T14:15:28;3.72;;;1.75;;
9821;SDS011;4950;46.042;14.472;2023-04-25T14:17:55;6.82;;;2.70;;
9821;SDS011;4950;46.042;14.472;2023-04-25T14:20:22;3.88;;;2.20;;
9821;SDS011;4950;46.042;14.472;2023-04-25T14:22:49;3.45;;;2.08;;
9821;SDS011;4950;46.042;14.472;2023-04-25T14:25:19;6.28;;;2.80;;
9821;SDS011;4950;46.042;14.472;2023-04-25T14:27:47;8.00;;;2.20;;
9821;SDS011;4950;46.042;14.472;2023-04-25T14:30:15;2.85;;;1.52;;
9821;SDS011;4950;46.042;14.472;2023-04-25T14:32:42;3.10;;;1.80;;
9821;SDS011;4950;46.042;14.472;2023-04-25T14:35:09;7.38;;;2.58;;
9821;SDS011;4950;46.042;14.472;2023-04-25T14:37:36;4.15;;;3.03;;
9821;SDS011;4950;46.042;14.472;2023-04-25T14:40:05;3.55;;;1.80;;
9821;SDS011;4950;46.042;14.472;2023-04-25T14:42:33;3.33;;;1.95;;
9821;SDS011;4950;46.042;14.472;2023-04-25T14:45:02;6.43;;;2.90;;
9821;SDS011;4950;46.042;14.472;2023-04-25T14:47:31;3.38;;;1.98;;
9821;SDS011;4950;46.042;14.472;2023-04-25T14:49:58;3.60;;;1.58;;
9821;SDS011;4950;46.042;14.472;2023-04-25T14:52:26;6.55;;;1.80;;
9821;SDS011;4950;46.042;14.472;2023-04-25T14:54:53;2.33;;;1.40;;
9821;SDS011;4950;46.042;14.472;2023-04-25T14:57:20;4.78;;;2.13;;
9821;SDS011;4950;46.042;14.472;2023-04-25T14:59:46;3.30;;;1.85;;
9821;SDS011;4950;46.042;14.472;2023-04-25T15:02:14;3.65;;;1.73;;
9821;SDS011;4950;46.042;14.472;2023-04-25T15:04:42;4.85;;;2.45;;
9821;SDS011;4950;46.042;14.472;2023-04-25T15:07:08;2.88;;;1.98;;